Time;durP1;ratioP1;P1;durP2;ratioP2;P2;SDS_P1;SDS_P2;PMS_P1;PMS_P2;Temp;Humidity;BMP_temperature;BMP_pressure;BME280_temperature;BME280_humidity;BME280_pressure;Samples;Min_cycle;Max_cycle;Signal;HPM_P1;HPM_P2
2022/09/09 00:05:48;;;;;;;2.90;1.90;;;;;16.20;98552.00;;;;16398108;28;20224;-51
2022/09/09 00:13:54;;;;;;;3.90;2.43;;;;;16.40;98530.00;;;;16400576;28;20232;-51
2022/09/09 00:22:04;;;;;;;5.40;2.23;;;;;16.40;98535.00;;;;16401708;28;20232;-51
2022/09/09 00:30:19;;;;;;;5.50;2.10;;;;;16.40;98530.00;;;;16405589;28;20591;-51
2022/09/09 00:38:25;;;;;;;4.23;2.53;;;;;16.30;98531.00;;;;16400480;28;20261;-50
2022/09/09 00:46:50;;;;;;;2.70;2.03;;;;;16.80;98518.00;;;;16404903;28;20268;-50
2022/09/09 00:54:58;;;;;;;2.50;1.80;;;;;16.80;98528.00;;;;16418493;28;20237;-50
2022/09/09 01:03:20;;;;;;;1.80;1.57;;;;;17.60;98524.00;;;;16401643;28;20219;-49
2022/09/09 01:11:25;;;;;;;4.30;1.87;;;;;17.30;98516.00;;;;16386062;28;20229;-51
2022/09/09 01:19:40;;;;;;;5.53;3.00;;;;;18.10;98515.00;;;;16403203;28;20224;-51
2022/09/09 01:27:45;;;;;;;4.40;3.07;;;;;18.00;98521.00;;;;16401506;28;20269;-51
2022/09/09 01:35:54;;;;;;;3.97;2.57;;;;;18.40;98531.00;;;;16392881;28;20232;-50
2022/09/09 01:43:59;;;;;;;5.00;2.00;;;;;18.60;98522.00;;;;16394209;28;20582;-51
2022/09/09 01:52:03;;;;;;;3.20;2.63;;;;;18.30;98515.00;;;;16384910;28;20229;-51
2022/09/09 02:00:16;;;;;;;6.13;2.83;;;;;18.00;98515.00;;;;16386335;29;20289;-51
2022/09/09 02:08:23;;;;;;;3.70;2.30;;;;;18.10;98517.00;;;;16395676;28;20743;-51
2022/09/09 02:16:38;;;;;;;8.80;2.80;;;;;17.70;98517.00;;;;16394517;28;20225;-51
2022/09/09 02:24:41;;;;;;;3.70;2.97;;;;;18.10;98518.00;;;;16391730;28;20264;-51
2022/09/09 02:32:56;;;;;;;5.97;2.77;;;;;18.00;98525.00;;;;16377388;28;20239;-51
2022/09/09 02:41:01;;;;;;;5.73;2.77;;;;;17.70;98527.00;;;;16392888;28;20323;-51
2022/09/09 02:49:10;;;;;;;6.83;3.13;;;;;17.90;98525.00;;;;16402098;28;20232;-52
2022/09/09 02:57:18;;;;;;;2.90;2.20;;;;;17.70;98518.00;;;;16379251;28;20233;-51
2022/09/09 03:05:26;;;;;;;4.07;2.13;;;;;16.60;98536.00;;;;16387425;28;20251;-51
2022/09/09 03:13:29;;;;;;;6.87;2.87;;;;;17.30;98512.00;;;;16382413;28;20295;-51
2022/09/09 03:21:33;;;;;;;7.10;2.77;;;;;17.40;98524.00;;;;16389253;29;20237;-51
2022/09/09 03:29:36;;;;;;;7.33;3.40;;;;;17.00;98525.00;;;;16374948;29;20329;-52
2022/09/09 03:37:42;;;;;;;4.33;3.60;;;;;16.80;98529.00;;;;16396242;28;20594;-51
2022/09/09 03:45:47;;;;;;;7.53;4.13;;;;;17.00;98528.00;;;;16398118;28;20650;-51
2022/09/09 03:53:54;;;;;;;5.40;3.17;;;;;17.10;98512.00;;;;16385936;28;20229;-51
2022/09/09 04:01:58;;;;;;;4.00;2.90;;;;;17.30;98515.00;;;;16397672;28;20231;-51
2022/09/09 04:10:03;;;;;;;7.07;3.17;;;;;17.10;98516.00;;;;16393996;28;20232;-50
2022/09/09 04:18:07;;;;;;;5.37;2.70;;;;;17.00;98521.00;;;;16386220;28;20233;-51
2022/09/09 04:26:11;;;;;;;4.50;3.20;;;;;16.70;98531.00;;;;16380978;28;20242;-51
2022/09/09 04:34:14;;;;;;;5.70;2.70;;;;;16.80;98538.00;;;;16369822;28;20291;-50
2022/09/09 04:42:19;;;;;;;4.20;2.53;;;;;16.90;98529.00;;;;16384464;28;20782;-51
2022/09/09 04:50:23;;;;;;;3.10;2.73;;;;;17.20;98518.00;;;;16379825;29;20353;-50
2022/09/09 04:58:35;;;;;;;3.67;2.80;;;;;17.50;98535.00;;;;16383156;28;20236;-50
2022/09/09 05:06:38;;;;;;;3.30;2.60;;;;;18.20;98525.00;;;;16391714;28;20849;-51
2022/09/09 05:14:42;;;;;;;6.47;4.90;;;;;17.40;98545.00;;;;16387576;28;20307;-51
2022/09/09 05:22:45;;;;;;;4.50;2.50;;;;;17.50;98545.00;;;;16383792;28;20228;-51
2022/09/09 05:31:00;;;;;;;6.73;3.10;;;;;18.00;98553.00;;;;16389476;28;20307;-52
2022/09/09 05:39:04;;;;;;;8.50;2.90;;;;;17.70;98541.00;;;;16390133;28;20728;-52
2022/09/09 05:47:10;;;;;;;4.67;1.83;;;;;18.10;98562.00;;;;16401972;28;20252;-51
2022/09/09 05:55:13;;;;;;;6.17;3.30;;;;;18.40;98555.00;;;;16403541;28;20232;-51
2022/09/09 06:03:17;;;;;;;7.80;2.70;;;;;17.90;98566.00;;;;16390809;28;20602;-51
2022/09/09 06:11:21;;;;;;;5.53;2.40;;;;;18.40;98572.00;;;;16417324;28;20237;-52
2022/09/09 06:19:26;;;;;;;7.20;3.30;;;;;18.50;98563.00;;;;16427340;28;20232;-52
2022/09/09 06:27:30;;;;;;;6.23;2.00;;;;;18.60;98561.00;;;;16404352;28;20233;-51
2022/09/09 06:35:35;;;;;;;3.30;2.33;;;;;18.80;98559.00;;;;16380800;28;20745;-52
2022/09/09 06:43:38;;;;;;;6.50;2.50;;;;;18.80;98567.00;;;;16395133;28;20225;-51
2022/09/09 06:51:42;;;;;;;7.30;2.57;;;;;19.00;98571.00;;;;16385995;28;20236;-51
2022/09/09 06:59:45;;;;;;;6.20;2.50;;;;;19.20;98566.00;;;;16387330;29;20283;-51
2022/09/09 07:07:50;;;;;;;5.77;2.50;;;;;19.40;98563.00;;;;16381370;28;20319;-51
2022/09/09 07:15:55;;;;;;;9.93;4.90;;;;;19.80;98565.00;;;;16404231;28;20272;-51
2022/09/09 07:23:59;;;;;;;4.03;1.93;;;;;20.40;98559.00;;;;16397179;28;20233;-52
2022/09/09 07:32:04;;;;;;;5.60;2.60;;;;;20.20;98561.00;;;;16397785;28;20225;-52
2022/09/09 07:40:12;;;;;;;9.00;3.00;;;;;20.40;98559.00;;;;16382872;28;20283;-51
2022/09/09 07:48:14;;;;;;;6.90;2.60;;;;;20.60;98567.00;;;;16399617;28;20224;-52
2022/09/09 07:56:21;;;;;;;5.63;2.53;;;;;20.80;98573.00;;;;16400652;28;20286;-50
2022/09/09 08:04:26;;;;;;;4.07;2.33;;;;;20.90;98575.00;;;;16378249;28;20240;-51
2022/09/09 08:12:30;;;;;;;5.17;2.20;;;;;21.30;98572.00;;;;16388646;28;20576;-51
2022/09/09 08:20:33;;;;;;;3.30;1.20;;;;;21.40;98584.00;;;;16386748;29;20208;-51
2022/09/09 08:28:39;;;;;;;4.67;1.30;;;;;22.30;98575.00;;;;16400923;28;20234;-52
2022/09/09 08:36:43;;;;;;;4.43;1.77;;;;;22.40;98578.00;;;;16383763;28;20229;-52
2022/09/09 08:45:10;;;;;;;3.00;1.00;;;;;22.30;98580.00;;;;16394641;28;20233;-52
2022/09/09 08:53:17;;;;;;;3.33;1.40;;;;;22.60;98581.00;;;;16400515;28;20228;-51
2022/09/09 09:01:50;;;;;;;4.07;1.30;;;;;22.80;98574.00;;;;16396180;28;20212;-52
2022/09/09 09:10:04;;;;;;;2.20;1.30;;;;;23.60;98563.00;;;;16395023;28;20261;-51
2022/09/09 09:18:15;;;;;;;5.17;1.03;;;;;24.40;98555.00;;;;16387079;28;20321;-52
2022/09/09 09:26:18;;;;;;;3.47;1.60;;;;;24.40;98557.00;;;;16501833;23;20682;-49
2022/09/09 09:34:24;;;;;;;3.27;1.50;;;;;23.10;98593.00;;;;16526101;28;20341;-49
2022/09/09 09:42:27;;;;;;;2.40;1.30;;;;;20.50;98613.00;;;;16523185;28;20223;-48
2022/09/09 09:50:34;;;;;;;3.90;1.63;;;;;20.90;98595.00;;;;16518244;28;20236;-48
2022/09/09 09:58:50;;;;;;;0.97;0.90;;;;;22.10;98572.00;;;;16516836;28;20746;-49
2022/09/09 10:06:56;;;;;;;2.30;0.87;;;;;23.20;98549.00;;;;16512326;28;20216;-49
2022/09/09 10:15:02;;;;;;;1.27;0.90;;;;;23.10;98544.00;;;;16523008;28;20595;-49
2022/09/09 10:23:19;;;;;;;2.40;1.07;;;;;24.00;98543.00;;;;16522645;28;20278;-49
2022/09/09 10:31:26;;;;;;;1.70;0.77;;;;;24.40;98525.00;;;;16522308;28;20251;-49
2022/09/09 10:39:36;;;;;;;2.80;1.20;;;;;25.10;98530.00;;;;16520792;28;20188;-49
2022/09/09 10:48:06;;;;;;;1.80;1.10;;;;;24.10;98528.00;;;;16520865;28;20279;-49
2022/09/09 10:56:12;;;;;;;5.77;1.47;;;;;24.70;98525.00;;;;16514678;28;20243;-50
2022/09/09 11:04:18;;;;;;;3.00;1.27;;;;;26.30;98512.00;;;;16517824;28;20239;-50
2022/09/09 11:12:23;;;;;;;3.33;1.53;;;;;25.10;98495.00;;;;16510159;28;20228;-50
2022/09/09 11:20:29;;;;;;;2.93;1.20;;;;;25.00;98503.00;;;;16517701;28;20215;-49
2022/09/09 11:28:44;;;;;;;4.43;1.30;;;;;24.70;98504.00;;;;16509382;28;20282;-49
2022/09/09 11:37:01;;;;;;;1.37;1.27;;;;;23.30;98552.00;;;;16511803;28;20279;-49
2022/09/09 11:45:18;;;;;;;3.27;1.07;;;;;22.70;98573.00;;;;16504436;28;20303;-49
2022/09/09 11:53:23;;;;;;;1.67;0.97;;;;;22.60;98557.00;;;;16508633;28;20224;-48
2022/09/09 12:01:35;;;;;;;1.10;0.80;;;;;22.70;98561.00;;;;16507660;28;20196;-49
2022/09/09 12:09:47;;;;;;;0.63;0.50;;;;;22.40;98563.00;;;;16517067;28;20231;-49
2022/09/09 12:17:53;;;;;;;0.90;0.50;;;;;23.20;98565.00;;;;16530163;28;20239;-49
2022/09/09 12:26:01;;;;;;;2.70;1.40;;;;;22.70;98546.00;;;;16528728;28;20741;-50
2022/09/09 12:34:15;;;;;;;1.87;0.60;;;;;24.90;98535.00;;;;16525168;28;20232;-50
2022/09/09 12:42:19;;;;;;;0.50;0.40;;;;;25.20;98516.00;;;;16525925;28;20236;-49
2022/09/09 12:50:25;;;;;;;1.67;0.50;;;;;24.60;98524.00;;;;16520413;28;20224;-49
2022/09/09 12:58:32;;;;;;;1.57;1.00;;;;;23.90;98511.00;;;;16524683;28;20720;-49
2022/09/09 13:06:36;;;;;;;0.70;0.50;;;;;24.30;98513.00;;;;16514499;28;20358;-49
2022/09/09 13:14:38;;;;;;;2.00;1.00;;;;;24.60;98501.00;;;;16519696;28;20238;-49
2022/09/09 13:22:42;;;;;;;2.70;0.90;;;;;25.00;98496.00;;;;16518234;28;20223;-49
2022/09/09 13:30:45;;;;;;;1.33;0.60;;;;;25.50;98496.00;;;;16521463;28;20704;-49
2022/09/09 13:38:59;;;;;;;3.13;1.07;;;;;26.30;98491.00;;;;16521860;28;20714;-49
2022/09/09 13:47:03;;;;;;;1.27;0.97;;;;;27.30;98478.00;;;;16517934;28;20216;-49
2022/09/09 13:55:09;;;;;;;1.33;0.70;;;;;26.70;98481.00;;;;16521765;28;20238;-49
2022/09/09 14:03:12;;;;;;;2.00;0.80;;;;;26.70;98481.00;;;;16519414;28;20223;-49
2022/09/09 14:11:16;;;;;;;0.90;0.50;;;;;25.30;98483.00;;;;16521354;28;20357;-49
2022/09/09 14:19:18;;;;;;;3.90;0.97;;;;;27.20;98476.00;;;;16519081;28;20239;-49
2022/09/09 14:27:22;;;;;;;2.83;0.80;;;;;26.10;98479.00;;;;16522055;28;21068;-49
2022/09/09 14:35:25;;;;;;;1.50;0.70;;;;;26.30;98481.00;;;;16521092;28;20234;-49
2022/09/09 14:43:29;;;;;;;1.30;0.50;;;;;26.10;98470.00;;;;16521153;28;20227;-48
2022/09/09 14:51:32;;;;;;;1.07;0.60;;;;;26.60;98464.00;;;;16517382;28;20231;-49
2022/09/09 14:59:36;;;;;;;1.97;0.70;;;;;27.10;98472.00;;;;16520129;28;20204;-50
2022/09/09 15:07:38;;;;;;;1.50;0.60;;;;;28.30;98470.00;;;;16520974;28;20223;-49
2022/09/09 15:15:42;;;;;;;1.07;0.40;;;;;27.10;98479.00;;;;16511671;28;20227;-50
2022/09/09 15:23:45;;;;;;;1.60;0.60;;;;;28.00;98478.00;;;;16510911;28;20235;-49
2022/09/09 15:31:48;;;;;;;4.00;0.80;;;;;27.10;98482.00;;;;16511448;28;20578;-49
2022/09/09 15:39:51;;;;;;;1.40;0.70;;;;;25.00;98475.00;;;;16503147;28;20216;-49
2022/09/09 15:47:55;;;;;;;2.50;1.13;;;;;25.40;98480.00;;;;16502157;28;20314;-48
2022/09/09 15:55:57;;;;;;;1.93;0.83;;;;;24.60;98490.00;;;;16535045;23;20285;-48
2022/09/09 16:04:01;;;;;;;3.23;1.00;;;;;24.90;98497.00;;;;16565366;28;20253;-46
2022/09/09 16:12:09;;;;;;;3.60;0.80;;;;;24.50;98499.00;;;;16508954;28;20253;-49
2022/09/09 16:20:14;;;;;;;4.33;0.90;;;;;23.80;98512.00;;;;16499732;28;20358;-48
2022/09/09 16:28:16;;;;;;;0.80;0.60;;;;;24.10;98512.00;;;;16493155;28;20224;-48
2022/09/09 16:36:22;;;;;;;2.33;1.10;;;;;23.80;98514.00;;;;16509053;28;20241;-48
2022/09/09 16:44:25;;;;;;;2.73;1.00;;;;;24.30;98522.00;;;;16513639;28;20291;-50
2022/09/09 16:52:29;;;;;;;2.53;1.30;;;;;23.10;98560.00;;;;16499994;28;20225;-48
2022/09/09 17:00:32;;;;;;;1.50;0.87;;;;;22.30;98583.00;;;;16494069;28;20246;-48
2022/09/09 17:08:36;;;;;;;0.83;0.60;;;;;22.10;98575.00;;;;16477051;28;20612;-48
2022/09/09 17:16:39;;;;;;;1.17;0.50;;;;;21.80;98563.00;;;;16472990;28;20232;-48
2022/09/09 17:24:43;;;;;;;0.90;0.60;;;;;21.40;98571.00;;;;16508286;28;20212;-48
2022/09/09 17:32:46;;;;;;;0.70;0.60;;;;;21.60;98563.00;;;;16506276;28;20227;-48
2022/09/09 17:40:50;;;;;;;5.30;1.17;;;;;21.60;98563.00;;;;16528382;28;20220;-48
2022/09/09 17:48:56;;;;;;;1.40;0.90;;;;;22.10;98575.00;;;;16527265;28;20215;-48
2022/09/09 17:57:00;;;;;;;4.83;1.60;;;;;21.50;98599.00;;;;16516900;28;20806;-46
2022/09/09 18:05:03;;;;;;;1.53;1.20;;;;;21.60;98603.00;;;;16511306;28;20204;-49
2022/09/09 18:13:08;;;;;;;2.03;1.17;;;;;22.70;98597.00;;;;16505889;28;20239;-49
2022/09/09 18:21:11;;;;;;;1.80;1.10;;;;;22.40;98604.00;;;;16486383;28;20313;-50
2022/09/09 18:29:18;;;;;;;0.97;0.77;;;;;22.10;98617.00;;;;16408109;28;20239;-50
2022/09/09 18:37:21;;;;;;;1.80;0.90;;;;;22.20;98621.00;;;;16516795;28;20737;-49
2022/09/09 18:45:25;;;;;;;3.97;1.43;;;;;21.40;98624.00;;;;16528117;28;20299;-48
2022/09/09 18:53:27;;;;;;;2.30;1.00;;;;;20.50;98643.00;;;;16523270;28;20872;-49
2022/09/09 19:01:31;;;;;;;9.63;1.80;;;;;20.30;98641.00;;;;16509879;28;20225;-49
2022/09/09 19:09:35;;;;;;;1.37;1.20;;;;;19.60;98658.00;;;;16512999;28;20374;-49
2022/09/09 19:17:39;;;;;;;2.87;1.23;;;;;19.90;98639.00;;;;16517019;28;20242;-48
2022/09/09 19:25:41;;;;;;;1.73;0.97;;;;;20.60;98644.00;;;;16497112;28;20220;-49
2022/09/09 19:33:46;;;;;;;2.13;1.20;;;;;20.90;98647.00;;;;16519707;28;20221;-50
2022/09/09 19:41:48;;;;;;;4.47;1.23;;;;;19.50;98668.00;;;;16473925;28;20223;-50
2022/09/09 19:49:52;;;;;;;4.77;1.90;;;;;19.30;98667.00;;;;16470311;28;20228;-50
2022/09/09 19:57:55;;;;;;;2.53;1.40;;;;;20.30;98674.00;;;;16479631;28;20404;-49
2022/09/09 20:05:58;;;;;;;2.63;1.20;;;;;20.60;98682.00;;;;16488924;28;20736;-47
2022/09/09 20:14:01;;;;;;;2.70;1.70;;;;;20.30;98685.00;;;;16503841;28;20231;-49
2022/09/09 20:22:05;;;;;;;2.33;1.00;;;;;18.80;98692.00;;;;16525143;28;20306;-48
2022/09/09 20:30:09;;;;;;;2.57;1.40;;;;;18.10;98708.00;;;;16504698;28;20233;-49
2022/09/09 20:38:12;;;;;;;2.20;1.10;;;;;18.10;98712.00;;;;16502051;28;20242;-48
2022/09/09 20:46:16;;;;;;;2.17;1.43;;;;;18.40;98723.00;;;;16509759;28;20222;-49
2022/09/09 20:54:23;;;;;;;4.10;1.63;;;;;18.90;98724.00;;;;16488565;28;20243;-47
2022/09/09 21:02:25;;;;;;;3.93;2.00;;;;;19.10;98716.00;;;;16499059;28;20232;-50
2022/09/09 21:10:31;;;;;;;3.13;1.80;;;;;18.70;98723.00;;;;16505542;28;20227;-49
2022/09/09 21:18:34;;;;;;;2.10;1.50;;;;;19.20;98716.00;;;;16489711;28;20616;-47
2022/09/09 21:26:38;;;;;;;3.20;1.70;;;;;18.60;98709.00;;;;16492980;28;20227;-49
2022/09/09 21:34:41;;;;;;;2.70;1.63;;;;;18.80;98712.00;;;;16500671;28;20235;-49
2022/09/09 21:42:45;;;;;;;3.23;1.43;;;;;18.10;98720.00;;;;16469492;28;20232;-50
2022/09/09 21:50:48;;;;;;;2.70;1.30;;;;;18.90;98714.00;;;;16486319;28;20228;-48
2022/09/09 21:58:57;;;;;;;5.53;1.60;;;;;17.60;98725.00;;;;16489612;28;20228;-49
2022/09/09 22:06:59;;;;;;;2.70;1.80;;;;;17.40;98723.00;;;;16462394;28;20734;-49
2022/09/09 22:15:03;;;;;;;3.37;1.50;;;;;18.50;98704.00;;;;16462282;28;20224;-49
2022/09/09 22:23:06;;;;;;;2.73;1.57;;;;;17.60;98713.00;;;;16465410;28;20225;-49
2022/09/09 22:31:09;;;;;;;5.10;1.60;;;;;17.80;98718.00;;;;16489730;28;20228;-48
2022/09/09 22:39:12;;;;;;;2.23;1.50;;;;;18.50;98709.00;;;;16475204;28;20705;-49
2022/09/09 22:47:16;;;;;;;2.23;2.03;;;;;18.80;98709.00;;;;16468149;28;20218;-49
2022/09/09 22:55:18;;;;;;;1.57;1.20;;;;;19.40;98720.00;;;;16500346;28;20232;-48
2022/09/09 23:03:22;;;;;;;3.60;1.40;;;;;19.60;98727.00;;;;16475049;28;20210;-50
2022/09/09 23:11:26;;;;;;;1.40;0.90;;;;;19.30;98737.00;;;;16501692;28;20226;-48
2022/09/09 23:19:30;;;;;;;2.97;1.50;;;;;19.10;98754.00;;;;16459872;28;20251;-49
2022/09/09 23:27:33;;;;;;;2.97;1.23;;;;;20.10;98746.00;;;;16483760;28;20227;-50
2022/09/09 23:35:37;;;;;;;2.50;1.60;;;;;20.20;98741.00;;;;16490394;28;20267;-49
2022/09/09 23:43:39;;;;;;;2.00;1.60;;;;;19.80;98730.00;;;;16467245;28;20199;-47
2022/09/09 23:51:43;;;;;;;2.43;1.40;;;;;19.60;98736.00;;;;16478776;28;20219;-48
2022/09/09 23:59:46;;;;;;;6.97;1.57;;;;;19.60;98739.00;;;;16484287;28;20431;-49
